Terminal Aerodrome Forecast
Issued by NWS

Home | Current Version | Previous Version | Text Only | Print | Product List | Glossary On
Versions: 1 2 3 4 5 6 7 8 9 10 11 12 13 14 15 16 17 18 19 20 21 22
000
FTUS44 KOUN 051120
TAFCSM
TAF
KCSM 051120Z 0512/0612 15019G23KT P6SM FEW035 OVC050
      TEMPO 0513/0516 6SM -RA OVC025
     FM051600 16020G25KT 5SM -TSRA OVC015CB
     FM052300 15019G25KT P6SM OVC010
      TEMPO 0602/0606 5SM -TSRA OVC009CB
     FM060600 16012G19KT 6SM BR OVC008=

USA.gov is the U.S. government's official web portal to all federal, state and local government web resources and services.